sensor_id;sensor_type;location;lat;lon;timestamp;pressure;altitude;pressure_sealevel;temperature;humidity
57442;BME280;43284;47.042;15.498;2023-12-20T00:01:38;96969.56;;;-2.14;100.00
57442;BME280;43284;47.042;15.498;2023-12-20T00:04:06;96974.69;;;-2.16;100.00
57442;BME280;43284;47.042;15.498;2023-12-20T00:06:31;96967.00;;;-2.16;100.00
57442;BME280;43284;47.042;15.498;2023-12-20T00:08:58;96955.91;;;-2.13;100.00
57442;BME280;43284;47.042;15.498;2023-12-20T00:11:24;96950.78;;;-2.16;100.00
57442;BME280;43284;47.042;15.498;2023-12-20T00:13:49;96953.34;;;-2.16;100.00
57442;BME280;43284;47.042;15.498;2023-12-20T00:16:15;96945.66;;;-2.18;100.00
57442;BME280;43284;47.042;15.498;2023-12-20T00:18:40;96942.25;;;-2.18;100.00
57442;BME280;43284;47.042;15.498;2023-12-20T00:21:06;96935.41;;;-2.21;100.00
57442;BME280;43284;47.042;15.498;2023-12-20T00:23:32;96927.75;;;-2.22;100.00
57442;BME280;43284;47.042;15.498;2023-12-20T00:25:57;96929.47;;;-2.23;100.00
57442;BME280;43284;47.042;15.498;2023-12-20T00:28:23;96927.75;;;-2.24;100.00
57442;BME280;43284;47.042;15.498;2023-12-20T00:30:48;96924.34;;;-2.26;100.00
57442;BME280;43284;47.042;15.498;2023-12-20T00:33:14;96922.66;;;-2.29;100.00
57442;BME280;43284;47.042;15.498;2023-12-20T00:35:39;96921.78;;;-2.31;100.00
57442;BME280;43284;47.042;15.498;2023-12-20T00:38:05;96917.50;;;-2.24;100.00
57442;BME280;43284;47.042;15.498;2023-12-20T00:40:32;96914.09;;;-2.21;100.00
57442;BME280;43284;47.042;15.498;2023-12-20T00:42:58;96913.25;;;-2.22;100.00
57442;BME280;43284;47.042;15.498;2023-12-20T00:45:24;96907.28;;;-2.24;100.00
57442;BME280;43284;47.042;15.498;2023-12-20T00:47:49;96908.13;;;-2.23;100.00
57442;BME280;43284;47.042;15.498;2023-12-20T00:50:15;96912.41;;;-2.24;100.00
57442;BME280;43284;47.042;15.498;2023-12-20T00:52:40;96897.06;;;-2.32;100.00
57442;BME280;43284;47.042;15.498;2023-12-20T00:55:06;96896.22;;;-2.34;100.00
57442;BME280;43284;47.042;15.498;2023-12-20T00:57:32;96891.09;;;-2.35;100.00
57442;BME280;43284;47.042;15.498;2023-12-20T00:59:57;96877.44;;;-2.33;100.00
57442;BME280;43284;47.042;15.498;2023-12-20T01:02:23;96875.75;;;-2.34;100.00
57442;BME280;43284;47.042;15.498;2023-12-20T01:04:48;96877.44;;;-2.36;100.00
57442;BME280;43284;47.042;15.498;2023-12-20T01:07:14;96879.16;;;-2.33;100.00
57442;BME280;43284;47.042;15.498;2023-12-20T01:09:39;96880.84;;;-2.31;100.00
57442;BME280;43284;47.042;15.498;2023-12-20T01:12:05;96888.50;;;-2.26;100.00
57442;BME280;43284;47.042;15.498;2023-12-20T01:14:31;96886.81;;;-2.33;100.00
57442;BME280;43284;47.042;15.498;2023-12-20T01:16:56;96880.00;;;-2.37;100.00
57442;BME280;43284;47.042;15.498;2023-12-20T01:19:22;96878.31;;;-2.40;100.00
57442;BME280;43284;47.042;15.498;2023-12-20T01:21:49;96877.47;;;-2.40;100.00
57442;BME280;43284;47.042;15.498;2023-12-20T01:24:16;96882.59;;;-2.40;100.00
57442;BME280;43284;47.042;15.498;2023-12-20T01:26:41;96877.47;;;-2.42;100.00
57442;BME280;43284;47.042;15.498;2023-12-20T01:29:10;96874.88;;;-2.43;100.00
57442;BME280;43284;47.042;15.498;2023-12-20T01:31:36;96877.44;;;-2.45;100.00
57442;BME280;43284;47.042;15.498;2023-12-20T01:34:01;96867.22;;;-2.50;100.00
57442;BME280;43284;47.042;15.498;2023-12-20T01:36:27;96874.91;;;-2.48;100.00
57442;BME280;43284;47.042;15.498;2023-12-20T01:38:53;96871.50;;;-2.50;100.00
57442;BME280;43284;47.042;15.498;2023-12-20T01:41:19;96868.94;;;-2.52;100.00
57442;BME280;43284;47.042;15.498;2023-12-20T01:43:44;96867.22;;;-2.50;100.00
57442;BME280;43284;47.042;15.498;2023-12-20T01:46:10;96861.25;;;-2.50;100.00
57442;BME280;43284;47.042;15.498;2023-12-20T01:48:37;96862.97;;;-2.52;100.00
57442;BME280;43284;47.042;15.498;2023-12-20T01:51:04;96863.81;;;-2.52;100.00
57442;BME280;43284;47.042;15.498;2023-12-20T01:53:30;96851.03;;;-2.55;100.00
57442;BME280;43284;47.042;15.498;2023-12-20T01:55:58;96847.63;;;-2.49;100.00
57442;BME280;43284;47.042;15.498;2023-12-20T01:58:24;96840.81;;;-2.55;100.00
57442;BME280;43284;47.042;15.498;2023-12-20T02:00:51;96835.69;;;-2.56;100.00
57442;BME280;43284;47.042;15.498;2023-12-20T02:03:17;96822.03;;;-2.57;100.00
57442;BME280;43284;47.042;15.498;2023-12-20T02:05:43;96822.06;;;-2.60;100.00
57442;BME280;43284;47.042;15.498;2023-12-20T02:08:09;96812.69;;;-2.62;100.00
57442;BME280;43284;47.042;15.498;2023-12-20T02:10:35;96807.56;;;-2.65;100.00
57442;BME280;43284;47.042;15.498;2023-12-20T02:13:00;96798.19;;;-2.68;100.00
57442;BME280;43284;47.042;15.498;2023-12-20T02:15:26;96797.34;;;-2.70;100.00
57442;BME280;43284;47.042;15.498;2023-12-20T02:17:58;96793.09;;;-2.66;100.00
57442;BME280;43284;47.042;15.498;2023-12-20T02:20:30;96793.91;;;-2.67;100.00
57442;BME280;43284;47.042;15.498;2023-12-20T02:22:55;96793.94;;;-2.72;100.00
57442;BME280;43284;47.042;15.498;2023-12-20T02:25:21;96796.50;;;-2.74;100.00
57442;BME280;43284;47.042;15.498;2023-12-20T02:27:47;96793.09;;;-2.73;100.00
57442;BME280;43284;47.042;15.498;2023-12-20T02:30:14;96782.84;;;-2.73;100.00
57442;BME280;43284;47.042;15.498;2023-12-20T02:32:39;96777.72;;;-2.76;100.00
57442;BME280;43284;47.042;15.498;2023-12-20T02:35:05;96770.94;;;-2.75;100.00
57442;BME280;43284;47.042;15.498;2023-12-20T02:37:32;96769.19;;;-2.72;100.00
57442;BME280;43284;47.042;15.498;2023-12-20T02:39:58;96763.25;;;-2.75;100.00
57442;BME280;43284;47.042;15.498;2023-12-20T02:42:24;96760.69;;;-2.77;100.00
57442;BME280;43284;47.042;15.498;2023-12-20T02:44:49;96753.00;;;-2.74;100.00
57442;BME280;43284;47.042;15.498;2023-12-20T02:47:15;96757.31;;;-2.77;100.00
57442;BME280;43284;47.042;15.498;2023-12-20T02:49:40;96749.63;;;-2.79;100.00
57442;BME280;43284;47.042;15.498;2023-12-20T02:52:06;96751.34;;;-2.79;100.00
57442;BME280;43284;47.042;15.498;2023-12-20T02:54:31;96747.06;;;-2.79;100.00
57442;BME280;43284;47.042;15.498;2023-12-20T02:56:57;96737.72;;;-2.86;100.00
57442;BME280;43284;47.042;15.498;2023-12-20T02:59:22;96734.28;;;-2.91;100.00
57442;BME280;43284;47.042;15.498;2023-12-20T03:01:48;96726.63;;;-2.91;100.00
57442;BME280;43284;47.042;15.498;2023-12-20T03:04:13;96726.66;;;-2.94;100.00
57442;BME280;43284;47.042;15.498;2023-12-20T03:06:39;96722.41;;;-2.95;100.00
57442;BME280;43284;47.042;15.498;2023-12-20T03:09:04;96718.13;;;-2.96;100.00
57442;BME280;43284;47.042;15.498;2023-12-20T03:11:30;96717.28;;;-2.95;100.00
57442;BME280;43284;47.042;15.498;2023-12-20T03:13:59;96712.16;;;-2.95;100.00
57442;BME280;43284;47.042;15.498;2023-12-20T03:16:24;96714.69;;;-2.94;100.00
57442;BME280;43284;47.042;15.498;2023-12-20T03:18:53;96706.22;;;-2.97;100.00
57442;BME280;43284;47.042;15.498;2023-12-20T03:21:18;96701.94;;;-3.03;100.00
57442;BME280;43284;47.042;15.498;2023-12-20T03:23:45;96706.22;;;-3.05;100.00
57442;BME280;43284;47.042;15.498;2023-12-20T03:26:10;96711.34;;;-3.05;100.00
57442;BME280;43284;47.042;15.498;2023-12-20T03:28:36;96701.09;;;-3.02;100.00
57442;BME280;43284;47.042;15.498;2023-12-20T03:31:03;96706.19;;;-2.96;100.00
57442;BME280;43284;47.042;15.498;2023-12-20T03:33:40;96696.81;;;-2.94;100.00
57442;BME280;43284;47.042;15.498;2023-12-20T03:36:06;96697.66;;;-2.96;100.00
57442;BME280;43284;47.042;15.498;2023-12-20T03:38:32;96689.16;;;-3.01;100.00
57442;BME280;43284;47.042;15.498;2023-12-20T03:40:57;96691.75;;;-3.07;100.00
57442;BME280;43284;47.042;15.498;2023-12-20T03:43:23;96688.34;;;-3.09;100.00
57442;BME280;43284;47.042;15.498;2023-12-20T03:45:48;96692.59;;;-3.13;100.00
57442;BME280;43284;47.042;15.498;2023-12-20T03:48:14;96694.28;;;-3.09;100.00
57442;BME280;43284;47.042;15.498;2023-12-20T03:50:39;96694.28;;;-3.03;100.00
57442;BME280;43284;47.042;15.498;2023-12-20T03:53:05;96693.41;;;-3.02;100.00
57442;BME280;43284;47.042;15.498;2023-12-20T03:55:30;96696.00;;;-3.05;100.00
57442;BME280;43284;47.042;15.498;2023-12-20T03:57:56;96694.28;;;-3.09;100.00
57442;BME280;43284;47.042;15.498;2023-12-20T04:00:32;96693.47;;;-3.13;100.00
57442;BME280;43284;47.042;15.498;2023-12-20T04:02:57;96693.44;;;-3.11;100.00
57442;BME280;43284;47.042;15.498;2023-12-20T04:05:26;96693.44;;;-3.05;100.00
57442;BME280;43284;47.042;15.498;2023-12-20T04:07:51;96687.47;;;-3.07;100.00
57442;BME280;43284;47.042;15.498;2023-12-20T04:10:17;96698.56;;;-3.09;100.00
57442;BME280;43284;47.042;15.498;2023-12-20T04:12:42;96692.63;;;-3.15;100.00
57442;BME280;43284;47.042;15.498;2023-12-20T04:15:11;96699.41;;;-3.14;100.00
57442;BME280;43284;47.042;15.498;2023-12-20T04:17:37;96694.31;;;-3.14;100.00
57442;BME280;43284;47.042;15.498;2023-12-20T04:20:03;96693.47;;;-3.13;100.00
57442;BME280;43284;47.042;15.498;2023-12-20T04:22:28;96686.63;;;-3.14;100.00
57442;BME280;43284;47.042;15.498;2023-12-20T04:24:57;96676.44;;;-3.18;100.00
57442;BME280;43284;47.042;15.498;2023-12-20T04:27:22;96678.13;;;-3.20;100.00
57442;BME280;43284;47.042;15.498;2023-12-20T04:29:48;96686.66;;;-3.20;100.00
57442;BME280;43284;47.042;15.498;2023-12-20T04:32:13;96681.53;;;-3.18;100.00
57442;BME280;43284;47.042;15.498;2023-12-20T04:34:39;96682.38;;;-3.19;100.00
57442;BME280;43284;47.042;15.498;2023-12-20T04:37:05;96676.44;;;-3.18;100.00
57442;BME280;43284;47.042;15.498;2023-12-20T04:39:30;96688.34;;;-3.17;100.00
57442;BME280;43284;47.042;15.498;2023-12-20T04:41:56;96682.38;;;-3.18;100.00
57442;BME280;43284;47.042;15.498;2023-12-20T04:44:21;96677.28;;;-3.18;100.00
57442;BME280;43284;47.042;15.498;2023-12-20T04:46:47;96674.75;;;-3.21;100.00
57442;BME280;43284;47.042;15.498;2023-12-20T04:49:13;96679.84;;;-3.27;100.00
57442;BME280;43284;47.042;15.498;2023-12-20T04:51:38;96673.03;;;-3.23;100.00
57442;BME280;43284;47.042;15.498;2023-12-20T04:54:06;96661.13;;;-3.27;100.00
57442;BME280;43284;47.042;15.498;2023-12-20T04:56:31;96670.50;;;-3.31;100.00
57442;BME280;43284;47.042;15.498;2023-12-20T04:58:59;96670.47;;;-3.33;100.00
57442;BME280;43284;47.042;15.498;2023-12-20T05:01:25;96672.19;;;-3.35;100.00
57442;BME280;43284;47.042;15.498;2023-12-20T05:03:50;96675.63;;;-3.34;100.00
57442;BME280;43284;47.042;15.498;2023-12-20T05:06:18;96674.75;;;-3.33;100.00
57442;BME280;43284;47.042;15.498;2023-12-20T05:08:44;96679.03;;;-3.34;100.00
57442;BME280;43284;47.042;15.498;2023-12-20T05:11:15;96679.84;;;-3.35;100.00
57442;BME280;43284;47.042;15.498;2023-12-20T05:13:44;96679.88;;;-3.33;100.00
57442;BME280;43284;47.042;15.498;2023-12-20T05:16:09;96680.72;;;-3.28;100.00
57442;BME280;43284;47.042;15.498;2023-12-20T05:18:40;96673.88;;;-3.24;100.00
57442;BME280;43284;47.042;15.498;2023-12-20T05:21:06;96669.63;;;-3.24;100.00
57442;BME280;43284;47.042;15.498;2023-12-20T05:23:32;96665.38;;;-3.29;100.00
57442;BME280;43284;47.042;15.498;2023-12-20T05:25:57;96660.28;;;-3.31;100.00
57442;BME280;43284;47.042;15.498;2023-12-20T05:28:24;96662.81;;;-3.33;100.00
57442;BME280;43284;47.042;15.498;2023-12-20T05:30:49;96664.53;;;-3.39;100.00
57442;BME280;43284;47.042;15.498;2023-12-20T05:33:15;96670.53;;;-3.45;100.00
57442;BME280;43284;47.042;15.498;2023-12-20T05:35:40;96663.72;;;-3.47;100.00
57442;BME280;43284;47.042;15.498;2023-12-20T05:38:06;96671.34;;;-3.41;100.00
57442;BME280;43284;47.042;15.498;2023-12-20T05:40:32;96663.69;;;-3.38;100.00
57442;BME280;43284;47.042;15.498;2023-12-20T05:42:57;96665.41;;;-3.40;100.00
57442;BME280;43284;47.042;15.498;2023-12-20T05:45:23;96666.25;;;-3.44;100.00
57442;BME280;43284;47.042;15.498;2023-12-20T05:47:48;96655.19;;;-3.46;100.00
57442;BME280;43284;47.042;15.498;2023-12-20T05:50:15;96646.69;;;-3.47;100.00
57442;BME280;43284;47.042;15.498;2023-12-20T05:52:40;96646.69;;;-3.41;100.00
57442;BME280;43284;47.042;15.498;2023-12-20T05:55:06;96642.41;;;-3.43;100.00
57442;BME280;43284;47.042;15.498;2023-12-20T05:57:32;96648.38;;;-3.40;100.00
57442;BME280;43284;47.042;15.498;2023-12-20T05:59:57;96653.44;;;-3.31;100.00
57442;BME280;43284;47.042;15.498;2023-12-20T06:02:23;96662.81;;;-3.33;100.00
57442;BME280;43284;47.042;15.498;2023-12-20T06:04:48;96673.03;;;-3.31;100.00
57442;BME280;43284;47.042;15.498;2023-12-20T06:07:15;96669.63;;;-3.25;100.00
57442;BME280;43284;47.042;15.498;2023-12-20T06:09:40;96676.44;;;-3.18;100.00
57442;BME280;43284;47.042;15.498;2023-12-20T06:12:09;96680.66;;;-3.17;100.00
57442;BME280;43284;47.042;15.498;2023-12-20T06:14:35;96670.47;;;-3.14;100.00
57442;BME280;43284;47.042;15.498;2023-12-20T06:17:01;96673.84;;;-3.09;100.00
57442;BME280;43284;47.042;15.498;2023-12-20T06:19:29;96666.16;;;-3.04;100.00
57442;BME280;43284;47.042;15.498;2023-12-20T06:21:57;96661.88;;;-2.96;100.00
57442;BME280;43284;47.042;15.498;2023-12-20T06:24:23;96676.31;;;-2.84;100.00
57442;BME280;43284;47.042;15.498;2023-12-20T06:26:53;96675.47;;;-2.83;100.00
57442;BME280;43284;47.042;15.498;2023-12-20T06:29:18;96656.69;;;-2.75;100.00
57442;BME280;43284;47.042;15.498;2023-12-20T06:31:46;96662.63;;;-2.73;100.00
57442;BME280;43284;47.042;15.498;2023-12-20T06:34:12;96660.94;;;-2.71;100.00
57442;BME280;43284;47.042;15.498;2023-12-20T06:36:38;96668.59;;;-2.72;100.00
57442;BME280;43284;47.042;15.498;2023-12-20T06:39:03;96663.47;;;-2.67;100.00
57442;BME280;43284;47.042;15.498;2023-12-20T06:41:30;96662.59;;;-2.65;100.00
57442;BME280;43284;47.042;15.498;2023-12-20T06:43:55;96668.56;;;-2.64;100.00
57442;BME280;43284;47.042;15.498;2023-12-20T06:46:21;96672.81;;;-2.62;100.00
57442;BME280;43284;47.042;15.498;2023-12-20T06:48:46;96672.78;;;-2.60;100.00
57442;BME280;43284;47.042;15.498;2023-12-20T06:51:16;96676.19;;;-2.51;100.00
57442;BME280;43284;47.042;15.498;2023-12-20T06:53:42;96678.72;;;-2.49;100.00
57442;BME280;43284;47.042;15.498;2023-12-20T06:56:09;96678.72;;;-2.49;100.00
57442;BME280;43284;47.042;15.498;2023-12-20T06:58:35;96681.28;;;-2.49;100.00
57442;BME280;43284;47.042;15.498;2023-12-20T07:01:03;96683.81;;;-2.46;100.00
57442;BME280;43284;47.042;15.498;2023-12-20T07:03:29;96699.16;;;-2.43;100.00
57442;BME280;43284;47.042;15.498;2023-12-20T07:05:55;96686.34;;;-2.41;100.00
57442;BME280;43284;47.042;15.498;2023-12-20T07:08:20;96695.69;;;-2.33;100.00
57442;BME280;43284;47.042;15.498;2023-12-20T07:10:46;96701.59;;;-2.20;100.00
57442;BME280;43284;47.042;15.498;2023-12-20T07:13:13;96706.72;;;-2.20;100.00
57442;BME280;43284;47.042;15.498;2023-12-20T07:15:39;96712.69;;;-2.19;100.00
57442;BME280;43284;47.042;15.498;2023-12-20T07:18:05;96717.78;;;-2.15;100.00
57442;BME280;43284;47.042;15.498;2023-12-20T07:20:31;96727.13;;;-2.12;100.00
57442;BME280;43284;47.042;15.498;2023-12-20T07:22:57;96726.25;;;-2.08;100.00
57442;BME280;43284;47.042;15.498;2023-12-20T07:25:23;96736.47;;;-2.02;100.00
57442;BME280;43284;47.042;15.498;2023-12-20T07:27:48;96730.47;;;-1.96;100.00
57442;BME280;43284;47.042;15.498;2023-12-20T07:30:14;96731.28;;;-1.91;100.00
57442;BME280;43284;47.042;15.498;2023-12-20T07:32:40;96731.25;;;-1.85;100.00
57442;BME280;43284;47.042;15.498;2023-12-20T07:35:06;96738.03;;;-1.78;100.00
57442;BME280;43284;47.042;15.498;2023-12-20T07:37:33;96746.44;;;-1.62;100.00
57442;BME280;43284;47.042;15.498;2023-12-20T07:39:59;96749.00;;;-1.57;100.00
57442;BME280;43284;47.042;15.498;2023-12-20T07:42:25;96745.56;;;-1.58;100.00
57442;BME280;43284;47.042;15.498;2023-12-20T07:44:54;96756.69;;;-1.57;100.00
57442;BME280;43284;47.042;15.498;2023-12-20T07:47:24;96755.81;;;-1.56;100.00
57442;BME280;43284;47.042;15.498;2023-12-20T07:49:51;96754.94;;;-1.54;100.00
57442;BME280;43284;47.042;15.498;2023-12-20T07:52:18;96751.50;;;-1.51;100.00
57442;BME280;43284;47.042;15.498;2023-12-20T07:54:45;96753.22;;;-1.49;100.00
57442;BME280;43284;47.042;15.498;2023-12-20T07:57:11;96754.03;;;-1.45;100.00
57442;BME280;43284;47.042;15.498;2023-12-20T07:59:38;96759.09;;;-1.40;100.00
57442;BME280;43284;47.042;15.498;2023-12-20T08:02:04;96765.88;;;-1.32;100.00
57442;BME280;43284;47.042;15.498;2023-12-20T08:04:31;96769.28;;;-1.30;100.00
57442;BME280;43284;47.042;15.498;2023-12-20T08:06:57;96776.97;;;-1.30;100.00
57442;BME280;43284;47.042;15.498;2023-12-20T08:09:23;96783.81;;;-1.29;100.00
57442;BME280;43284;47.042;15.498;2023-12-20T08:11:50;96788.91;;;-1.27;100.00
57442;BME280;43284;47.042;15.498;2023-12-20T08:14:16;96794.88;;;-1.23;100.00
57442;BME280;43284;47.042;15.498;2023-12-20T08:16:42;96795.72;;;-1.21;100.00
57442;BME280;43284;47.042;15.498;2023-12-20T08:19:07;96791.44;;;-1.19;100.00
57442;BME280;43284;47.042;15.498;2023-12-20T08:21:33;96787.97;;;-1.17;100.00
57442;BME280;43284;47.042;15.498;2023-12-20T08:24:02;96787.94;;;-1.14;100.00
57442;BME280;43284;47.042;15.498;2023-12-20T08:26:28;96787.09;;;-1.11;100.00
57442;BME280;43284;47.042;15.498;2023-12-20T08:28:53;96787.06;;;-1.10;100.00
57442;BME280;43284;47.042;15.498;2023-12-20T08:31:19;96793.91;;;-1.09;100.00
57442;BME280;43284;47.042;15.498;2023-12-20T08:33:47;96792.13;;;-1.02;100.00
57442;BME280;43284;47.042;15.498;2023-12-20T08:36:13;96792.13;;;-1.00;100.00
57442;BME280;43284;47.042;15.498;2023-12-20T08:38:39;96794.66;;;-0.96;100.00
57442;BME280;43284;47.042;15.498;2023-12-20T08:41:05;96793.75;;;-0.92;100.00
57442;BME280;43284;47.042;15.498;2023-12-20T08:43:31;96798.84;;;-0.89;100.00
57442;BME280;43284;47.042;15.498;2023-12-20T08:45:57;96796.25;;;-0.84;100.00
57442;BME280;43284;47.042;15.498;2023-12-20T08:48:23;96802.16;;;-0.79;100.00
57442;BME280;43284;47.042;15.498;2023-12-20T08:50:48;96799.59;;;-0.74;100.00
57442;BME280;43284;47.042;15.498;2023-12-20T08:53:15;96804.63;;;-0.68;100.00
57442;BME280;43284;47.042;15.498;2023-12-20T08:55:45;96808.03;;;-0.65;100.00
57442;BME280;43284;47.042;15.498;2023-12-20T08:58:11;96805.41;;;-0.60;100.00
57442;BME280;43284;47.042;15.498;2023-12-20T09:00:36;96809.66;;;-0.56;100.00
57442;BME280;43284;47.042;15.498;2023-12-20T09:03:02;96811.31;;;-0.52;100.00
57442;BME280;43284;47.042;15.498;2023-12-20T09:05:28;96810.38;;;-0.43;100.00
57442;BME280;43284;47.042;15.498;2023-12-20T09:07:54;96809.47;;;-0.40;100.00
57442;BME280;43284;47.042;15.498;2023-12-20T09:10:19;96817.06;;;-0.28;100.00
57442;BME280;43284;47.042;15.498;2023-12-20T09:12:51;96815.16;;;-0.15;100.00
57442;BME280;43284;47.042;15.498;2023-12-20T09:15:22;96804.09;;;-0.19;100.00
57442;BME280;43284;47.042;15.498;2023-12-20T09:17:48;96798.97;;;-0.21;100.00
57442;BME280;43284;47.042;15.498;2023-12-20T09:20:13;96796.38;;;-0.17;100.00
57442;BME280;43284;47.042;15.498;2023-12-20T09:22:39;96783.50;;;-0.14;100.00
57442;BME280;43284;47.042;15.498;2023-12-20T09:25:05;96777.44;;;-0.09;100.00
57442;BME280;43284;47.042;15.498;2023-12-20T09:27:31;96775.66;;;-0.05;100.00
57442;BME280;43284;47.042;15.498;2023-12-20T09:29:56;96786.75;;;0.00;100.00
57442;BME280;43284;47.042;15.498;2023-12-20T09:32:22;96783.28;;;0.03;100.00
57442;BME280;43284;47.042;15.498;2023-12-20T09:34:47;96787.47;;;0.08;100.00
57442;BME280;43284;47.042;15.498;2023-12-20T09:37:13;96791.69;;;0.14;100.00
57442;BME280;43284;47.042;15.498;2023-12-20T09:39:39;96784.78;;;0.17;100.00
57442;BME280;43284;47.042;15.498;2023-12-20T09:42:05;96780.44;;;0.24;100.00
57442;BME280;43284;47.042;15.498;2023-12-20T09:44:34;96785.47;;;0.30;100.00
57442;BME280;43284;47.042;15.498;2023-12-20T09:47:03;96791.38;;;0.37;100.00
57442;BME280;43284;47.042;15.498;2023-12-20T09:49:30;96792.94;;;0.47;100.00
57442;BME280;43284;47.042;15.498;2023-12-20T09:51:56;96789.41;;;0.54;100.00
57442;BME280;43284;47.042;15.498;2023-12-20T09:54:22;96791.88;;;0.60;100.00
57442;BME280;43284;47.042;15.498;2023-12-20T09:56:48;96772.13;;;0.63;100.00
57442;BME280;43284;47.042;15.498;2023-12-20T09:59:14;96764.41;;;0.63;100.00
57442;BME280;43284;47.042;15.498;2023-12-20T10:01:41;96749.75;;;0.68;100.00
57442;BME280;43284;47.042;15.498;2023-12-20T10:04:08;96745.41;;;0.71;100.00
57442;BME280;43284;47.042;15.498;2023-12-20T10:06:40;96745.34;;;0.74;100.00
57442;BME280;43284;47.042;15.498;2023-12-20T10:09:06;96753.88;;;0.79;100.00
57442;BME280;43284;47.042;15.498;2023-12-20T10:11:32;96740.91;;;0.86;100.00
57442;BME280;43284;47.042;15.498;2023-12-20T10:14:01;96746.72;;;0.97;100.00
57442;BME280;43284;47.042;15.498;2023-12-20T10:16:27;96755.91;;;1.10;100.00
57442;BME280;43284;47.042;15.498;2023-12-20T10:18:53;96753.00;;;1.29;100.00
57442;BME280;43284;47.042;15.498;2023-12-20T10:21:19;96750.41;;;1.29;100.00
57442;BME280;43284;47.042;15.498;2023-12-20T10:23:45;96759.78;;;1.33;100.00
57442;BME280;43284;47.042;15.498;2023-12-20T10:26:19;96743.28;;;1.44;100.00
57442;BME280;43284;47.042;15.498;2023-12-20T10:28:46;96741.44;;;1.51;100.00
57442;BME280;43284;47.042;15.498;2023-12-20T10:31:35;96743.69;;;1.67;100.00
57442;BME280;43284;47.042;15.498;2023-12-20T10:34:02;96739.25;;;1.73;100.00
57442;BME280;43284;47.042;15.498;2023-12-20T10:36:32;96739.09;;;1.81;100.00
57442;BME280;43284;47.042;15.498;2023-12-20T10:39:04;96723.47;;;1.89;100.00
57442;BME280;43284;47.042;15.498;2023-12-20T10:41:32;96725.84;;;1.98;100.00
57442;BME280;43284;47.042;15.498;2023-12-20T10:44:14;96742.00;;;2.06;100.00
57442;BME280;43284;47.042;15.498;2023-12-20T10:46:41;96729.84;;;2.13;100.00
57442;BME280;43284;47.042;15.498;2023-12-20T10:49:13;96715.94;;;2.18;100.00
57442;BME280;43284;47.042;15.498;2023-12-20T10:51:40;96717.53;;;2.25;100.00
57442;BME280;43284;47.042;15.498;2023-12-20T10:54:25;96717.31;;;2.33;100.00
57442;BME280;43284;47.042;15.498;2023-12-20T10:57:05;96724.00;;;2.42;100.00
57442;BME280;43284;47.042;15.498;2023-12-20T11:00:09;96724.78;;;2.45;100.00
57442;BME280;43284;47.042;15.498;2023-12-20T11:02:41;96720.44;;;2.47;100.00
57442;BME280;43284;47.042;15.498;2023-12-20T11:08:13;96708.28;;;2.53;100.00
57442;BME280;43284;47.042;15.498;2023-12-20T11:13:34;96709.94;;;2.55;100.00
57442;BME280;43284;47.042;15.498;2023-12-20T11:16:11;96706.47;;;2.56;100.00
57442;BME280;43284;47.042;15.498;2023-12-20T11:18:46;96705.59;;;2.57;100.00
57442;BME280;43284;47.042;15.498;2023-12-20T11:21:13;96710.63;;;2.62;100.00
57442;BME280;43284;47.042;15.498;2023-12-20T11:23:42;96709.69;;;2.64;100.00
57442;BME280;43284;47.042;15.498;2023-12-20T11:26:11;96709.66;;;2.66;100.00
57442;BME280;43284;47.042;15.498;2023-12-20T11:28:41;96713.09;;;2.66;100.00
57442;BME280;43284;47.042;15.498;2023-12-20T11:31:07;96714.78;;;2.69;100.00
57442;BME280;43284;47.042;15.498;2023-12-20T11:33:36;96712.94;;;2.73;100.00
57442;BME280;43284;47.042;15.498;2023-12-20T11:36:02;96699.00;;;2.80;100.00
57442;BME280;43284;47.042;15.498;2023-12-20T11:38:37;96707.50;;;2.83;100.00
57442;BME280;43284;47.042;15.498;2023-12-20T11:41:06;96710.88;;;2.87;100.00
57442;BME280;43284;47.042;15.498;2023-12-20T11:43:38;96697.03;;;2.89;100.00
57442;BME280;43284;47.042;15.498;2023-12-20T11:46:06;96696.81;;;2.97;100.00
57442;BME280;43284;47.042;15.498;2023-12-20T11:48:32;96694.06;;;3.05;100.00
57442;BME280;43284;47.042;15.498;2023-12-20T11:50:58;96687.91;;;3.11;100.00
57442;BME280;43284;47.042;15.498;2023-12-20T11:53:24;96690.34;;;3.15;100.00
57442;BME280;43284;47.042;15.498;2023-12-20T11:55:50;96676.41;;;3.21;100.00
57442;BME280;43284;47.042;15.498;2023-12-20T11:58:16;96681.41;;;3.27;100.00
57442;BME280;43284;47.042;15.498;2023-12-20T12:00:42;96674.38;;;3.32;100.00
57442;BME280;43284;47.042;15.498;2023-12-20T12:03:08;96668.22;;;3.38;100.00
57442;BME280;43284;47.042;15.498;2023-12-20T12:05:34;96660.31;;;3.42;100.00
57442;BME280;43284;47.042;15.498;2023-12-20T12:08:01;96654.19;;;3.46;100.00
57442;BME280;43284;47.042;15.498;2023-12-20T12:10:28;96663.50;;;3.52;100.00
57442;BME280;43284;47.042;15.498;2023-12-20T12:12:54;96663.44;;;3.54;100.00
57442;BME280;43284;47.042;15.498;2023-12-20T12:15:19;96644.38;;;3.58;100.00
57442;BME280;43284;47.042;15.498;2023-12-20T12:17:53;96649.50;;;3.59;100.00
57442;BME280;43284;47.042;15.498;2023-12-20T12:20:19;96648.47;;;3.65;100.00
57442;BME280;43284;47.042;15.498;2023-12-20T12:22:45;96642.31;;;3.69;100.00
57442;BME280;43284;47.042;15.498;2023-12-20T12:25:13;96638.69;;;3.76;100.00
57442;BME280;43284;47.042;15.498;2023-12-20T12:27:40;96640.88;;;3.88;100.00
57442;BME280;43284;47.042;15.498;2023-12-20T12:30:06;96641.66;;;3.92;100.00
57442;BME280;43284;47.042;15.498;2023-12-20T12:32:32;96641.53;;;3.95;100.00
57442;BME280;43284;47.042;15.498;2023-12-20T12:34:58;96641.50;;;3.97;100.00
57442;BME280;43284;47.042;15.498;2023-12-20T12:37:24;96634.53;;;3.99;100.00
57442;BME280;43284;47.042;15.498;2023-12-20T12:39:49;96640.41;;;4.04;100.00
57442;BME280;43284;47.042;15.498;2023-12-20T12:42:15;96634.22;;;4.09;100.00
57442;BME280;43284;47.042;15.498;2023-12-20T12:44:41;96631.50;;;4.12;100.00
57442;BME280;43284;47.042;15.498;2023-12-20T12:47:06;96631.47;;;4.14;100.00